sensor_id;sensor_type;location;lat;lon;timestamp;P1;durP1;ratioP1;P2;durP2;ratioP2
68910;SDS011;55953;51.650;-0.522;2022-07-03T00:01:48;3.90;;;1.30;;
68910;SDS011;55953;51.650;-0.522;2022-07-03T00:04:16;5.30;;;1.70;;
68910;SDS011;55953;51.650;-0.522;2022-07-03T00:06:46;4.80;;;1.50;;
68910;SDS011;55953;51.650;-0.522;2022-07-03T00:09:14;6.10;;;1.60;;
68910;SDS011;55953;51.650;-0.522;2022-07-03T00:11:42;6.80;;;1.50;;
68910;SDS011;55953;51.650;-0.522;2022-07-03T00:14:10;3.70;;;1.80;;
68910;SDS011;55953;51.650;-0.522;2022-07-03T00:16:38;4.00;;;1.50;;
68910;SDS011;55953;51.650;-0.522;2022-07-03T00:19:06;7.70;;;1.90;;
68910;SDS011;55953;51.650;-0.522;2022-07-03T00:21:39;5.20;;;1.60;;
68910;SDS011;55953;51.650;-0.522;2022-07-03T00:24:20;6.60;;;1.70;;
68910;SDS011;55953;51.650;-0.522;2022-07-03T00:26:58;5.90;;;1.60;;
68910;SDS011;55953;51.650;-0.522;2022-07-03T00:29:37;5.30;;;1.30;;
68910;SDS011;55953;51.650;-0.522;2022-07-03T00:32:11;4.60;;;1.60;;
68910;SDS011;55953;51.650;-0.522;2022-07-03T00:34:41;4.90;;;1.50;;
68910;SDS011;55953;51.650;-0.522;2022-07-03T00:37:10;5.20;;;1.40;;
68910;SDS011;55953;51.650;-0.522;2022-07-03T00:39:42;6.20;;;1.60;;
68910;SDS011;55953;51.650;-0.522;2022-07-03T00:42:12;4.60;;;1.20;;
68910;SDS011;55953;51.650;-0.522;2022-07-03T00:44:45;4.80;;;1.30;;
68910;SDS011;55953;51.650;-0.522;2022-07-03T00:47:25;3.80;;;1.40;;
68910;SDS011;55953;51.650;-0.522;2022-07-03T00:49:55;4.40;;;1.40;;
68910;SDS011;55953;51.650;-0.522;2022-07-03T00:52:28;5.30;;;1.50;;
68910;SDS011;55953;51.650;-0.522;2022-07-03T00:55:00;6.30;;;1.60;;
68910;SDS011;55953;51.650;-0.522;2022-07-03T00:57:29;3.80;;;1.40;;
68910;SDS011;55953;51.650;-0.522;2022-07-03T00:59:58;3.50;;;1.30;;
68910;SDS011;55953;51.650;-0.522;2022-07-03T01:05:26;2.10;;;1.10;;
68910;SDS011;55953;51.650;-0.522;2022-07-03T01:08:21;5.50;;;1.30;;
68910;SDS011;55953;51.650;-0.522;2022-07-03T01:11:19;4.90;;;1.40;;
68910;SDS011;55953;51.650;-0.522;2022-07-03T01:14:18;7.10;;;1.50;;
68910;SDS011;55953;51.650;-0.522;2022-07-03T01:16:58;3.90;;;1.80;;
68910;SDS011;55953;51.650;-0.522;2022-07-03T01:19:37;6.10;;;1.50;;
68910;SDS011;55953;51.650;-0.522;2022-07-03T01:22:32;7.80;;;1.80;;
68910;SDS011;55953;51.650;-0.522;2022-07-03T01:30:46;13.50;;;1.90;;
68910;SDS011;55953;51.650;-0.522;2022-07-03T01:33:23;4.00;;;1.50;;
68910;SDS011;55953;51.650;-0.522;2022-07-03T01:36:03;3.60;;;1.60;;
68910;SDS011;55953;51.650;-0.522;2022-07-03T01:38:35;5.00;;;1.50;;
68910;SDS011;55953;51.650;-0.522;2022-07-03T01:41:06;3.50;;;1.70;;
68910;SDS011;55953;51.650;-0.522;2022-07-03T01:43:47;6.20;;;1.70;;
68910;SDS011;55953;51.650;-0.522;2022-07-03T01:46:17;8.00;;;1.50;;
68910;SDS011;55953;51.650;-0.522;2022-07-03T01:48:47;7.20;;;1.80;;
68910;SDS011;55953;51.650;-0.522;2022-07-03T01:51:17;5.30;;;1.70;;
68910;SDS011;55953;51.650;-0.522;2022-07-03T01:53:48;4.70;;;1.70;;
68910;SDS011;55953;51.650;-0.522;2022-07-03T01:56:20;6.70;;;1.90;;
68910;SDS011;55953;51.650;-0.522;2022-07-03T01:58:49;5.50;;;1.50;;
68910;SDS011;55953;51.650;-0.522;2022-07-03T02:04:36;5.50;;;1.70;;
68910;SDS011;55953;51.650;-0.522;2022-07-03T02:07:47;3.80;;;1.40;;
68910;SDS011;55953;51.650;-0.522;2022-07-03T02:10:25;5.40;;;1.40;;
68910;SDS011;55953;51.650;-0.522;2022-07-03T02:13:07;8.80;;;1.80;;
68910;SDS011;55953;51.650;-0.522;2022-07-03T02:15:43;6.30;;;1.30;;
68910;SDS011;55953;51.650;-0.522;2022-07-03T02:21:01;6.00;;;1.70;;
68910;SDS011;55953;51.650;-0.522;2022-07-03T02:27:03;6.70;;;1.60;;
68910;SDS011;55953;51.650;-0.522;2022-07-03T02:29:46;6.00;;;1.70;;
68910;SDS011;55953;51.650;-0.522;2022-07-03T02:32:20;7.00;;;1.70;;
68910;SDS011;55953;51.650;-0.522;2022-07-03T02:34:57;4.80;;;1.50;;
68910;SDS011;55953;51.650;-0.522;2022-07-03T02:37:41;6.50;;;1.50;;
68910;SDS011;55953;51.650;-0.522;2022-07-03T02:40:36;4.30;;;1.60;;
68910;SDS011;55953;51.650;-0.522;2022-07-03T02:46:10;6.00;;;1.80;;
68910;SDS011;55953;51.650;-0.522;2022-07-03T02:51:52;3.90;;;1.60;;
68910;SDS011;55953;51.650;-0.522;2022-07-03T02:54:32;4.50;;;1.60;;
68910;SDS011;55953;51.650;-0.522;2022-07-03T02:57:07;6.40;;;1.70;;
68910;SDS011;55953;51.650;-0.522;2022-07-03T02:59:57;6.40;;;1.80;;
68910;SDS011;55953;51.650;-0.522;2022-07-03T03:08:02;6.90;;;1.80;;
68910;SDS011;55953;51.650;-0.522;2022-07-03T03:10:39;5.10;;;2.00;;
68910;SDS011;55953;51.650;-0.522;2022-07-03T03:13:09;5.90;;;2.20;;
68910;SDS011;55953;51.650;-0.522;2022-07-03T03:15:52;6.70;;;2.10;;
68910;SDS011;55953;51.650;-0.522;2022-07-03T03:18:27;5.00;;;2.00;;
68910;SDS011;55953;51.650;-0.522;2022-07-03T03:20:59;6.30;;;2.30;;
68910;SDS011;55953;51.650;-0.522;2022-07-03T03:23:35;6.00;;;2.40;;
68910;SDS011;55953;51.650;-0.522;2022-07-03T03:26:23;4.60;;;2.30;;
68910;SDS011;55953;51.650;-0.522;2022-07-03T03:28:52;8.10;;;2.70;;
68910;SDS011;55953;51.650;-0.522;2022-07-03T03:31:21;10.00;;;2.30;;
68910;SDS011;55953;51.650;-0.522;2022-07-03T03:33:50;6.40;;;2.50;;
68910;SDS011;55953;51.650;-0.522;2022-07-03T03:36:20;5.80;;;2.10;;
68910;SDS011;55953;51.650;-0.522;2022-07-03T03:38:49;6.00;;;2.30;;
68910;SDS011;55953;51.650;-0.522;2022-07-03T03:41:17;5.00;;;2.50;;
68910;SDS011;55953;51.650;-0.522;2022-07-03T03:43:45;4.90;;;2.10;;
68910;SDS011;55953;51.650;-0.522;2022-07-03T03:46:13;6.20;;;2.00;;
68910;SDS011;55953;51.650;-0.522;2022-07-03T03:51:12;6.30;;;2.00;;
68910;SDS011;55953;51.650;-0.522;2022-07-03T03:53:40;5.00;;;2.50;;
68910;SDS011;55953;51.650;-0.522;2022-07-03T03:56:12;7.00;;;2.20;;
68910;SDS011;55953;51.650;-0.522;2022-07-03T03:58:42;8.10;;;2.30;;
68910;SDS011;55953;51.650;-0.522;2022-07-03T04:01:11;9.50;;;2.50;;
68910;SDS011;55953;51.650;-0.522;2022-07-03T04:03:40;7.30;;;2.60;;
68910;SDS011;55953;51.650;-0.522;2022-07-03T04:06:08;7.80;;;2.30;;
68910;SDS011;55953;51.650;-0.522;2022-07-03T04:08:37;6.20;;;2.20;;
68910;SDS011;55953;51.650;-0.522;2022-07-03T04:11:04;8.00;;;2.60;;
68910;SDS011;55953;51.650;-0.522;2022-07-03T04:13:32;7.50;;;2.20;;
68910;SDS011;55953;51.650;-0.522;2022-07-03T04:16:00;5.50;;;2.20;;
68910;SDS011;55953;51.650;-0.522;2022-07-03T04:18:28;5.50;;;2.40;;
68910;SDS011;55953;51.650;-0.522;2022-07-03T04:23:27;5.20;;;2.40;;
68910;SDS011;55953;51.650;-0.522;2022-07-03T04:25:55;6.80;;;2.20;;
68910;SDS011;55953;51.650;-0.522;2022-07-03T04:28:22;6.50;;;2.30;;
68910;SDS011;55953;51.650;-0.522;2022-07-03T04:30:50;7.10;;;2.40;;
68910;SDS011;55953;51.650;-0.522;2022-07-03T04:33:18;5.10;;;2.30;;
68910;SDS011;55953;51.650;-0.522;2022-07-03T04:35:46;9.80;;;2.30;;
68910;SDS011;55953;51.650;-0.522;2022-07-03T04:38:13;7.60;;;2.10;;
68910;SDS011;55953;51.650;-0.522;2022-07-03T04:40:41;5.80;;;2.90;;
68910;SDS011;55953;51.650;-0.522;2022-07-03T04:43:09;6.20;;;2.00;;
68910;SDS011;55953;51.650;-0.522;2022-07-03T04:45:37;9.60;;;2.20;;
68910;SDS011;55953;51.650;-0.522;2022-07-03T04:48:05;6.60;;;2.20;;
68910;SDS011;55953;51.650;-0.522;2022-07-03T04:50:32;6.00;;;1.80;;
68910;SDS011;55953;51.650;-0.522;2022-07-03T04:53:00;9.20;;;2.00;;
68910;SDS011;55953;51.650;-0.522;2022-07-03T04:55:28;7.40;;;2.00;;
68910;SDS011;55953;51.650;-0.522;2022-07-03T04:57:55;8.20;;;1.80;;
68910;SDS011;55953;51.650;-0.522;2022-07-03T05:00:23;6.40;;;2.00;;
68910;SDS011;55953;51.650;-0.522;2022-07-03T05:02:51;11.20;;;2.10;;
68910;SDS011;55953;51.650;-0.522;2022-07-03T05:05:19;5.70;;;1.90;;
68910;SDS011;55953;51.650;-0.522;2022-07-03T05:07:47;6.50;;;1.70;;
68910;SDS011;55953;51.650;-0.522;2022-07-03T05:10:15;7.90;;;1.90;;
68910;SDS011;55953;51.650;-0.522;2022-07-03T05:12:42;8.90;;;1.80;;
68910;SDS011;55953;51.650;-0.522;2022-07-03T05:15:10;7.00;;;1.60;;
68910;SDS011;55953;51.650;-0.522;2022-07-03T05:17:38;4.90;;;1.80;;
68910;SDS011;55953;51.650;-0.522;2022-07-03T05:20:06;8.90;;;2.00;;
68910;SDS011;55953;51.650;-0.522;2022-07-03T05:22:57;7.60;;;1.80;;
68910;SDS011;55953;51.650;-0.522;2022-07-03T05:25:27;4.50;;;1.90;;
68910;SDS011;55953;51.650;-0.522;2022-07-03T05:30:26;8.60;;;2.20;;
68910;SDS011;55953;51.650;-0.522;2022-07-03T05:32:54;4.20;;;2.00;;
68910;SDS011;55953;51.650;-0.522;2022-07-03T05:35:22;6.70;;;1.90;;
68910;SDS011;55953;51.650;-0.522;2022-07-03T05:37:50;7.70;;;2.00;;
68910;SDS011;55953;51.650;-0.522;2022-07-03T05:40:18;6.70;;;2.40;;
68910;SDS011;55953;51.650;-0.522;2022-07-03T05:42:45;5.20;;;1.90;;
68910;SDS011;55953;51.650;-0.522;2022-07-03T05:45:13;6.90;;;1.80;;
68910;SDS011;55953;51.650;-0.522;2022-07-03T05:47:41;7.50;;;1.90;;
68910;SDS011;55953;51.650;-0.522;2022-07-03T05:50:09;8.80;;;2.00;;
68910;SDS011;55953;51.650;-0.522;2022-07-03T05:52:38;8.90;;;2.00;;
68910;SDS011;55953;51.650;-0.522;2022-07-03T05:55:06;6.40;;;1.70;;
68910;SDS011;55953;51.650;-0.522;2022-07-03T05:57:34;4.40;;;1.80;;
68910;SDS011;55953;51.650;-0.522;2022-07-03T06:00:03;4.70;;;1.90;;
68910;SDS011;55953;51.650;-0.522;2022-07-03T06:02:32;5.50;;;1.50;;
68910;SDS011;55953;51.650;-0.522;2022-07-03T06:04:59;8.20;;;1.70;;
68910;SDS011;55953;51.650;-0.522;2022-07-03T06:07:27;10.20;;;1.80;;
68910;SDS011;55953;51.650;-0.522;2022-07-03T06:09:55;6.90;;;1.60;;
68910;SDS011;55953;51.650;-0.522;2022-07-03T06:12:23;6.10;;;1.70;;
68910;SDS011;55953;51.650;-0.522;2022-07-03T06:14:50;7.90;;;1.80;;
68910;SDS011;55953;51.650;-0.522;2022-07-03T06:17:18;5.90;;;1.80;;
68910;SDS011;55953;51.650;-0.522;2022-07-03T06:19:46;6.10;;;1.70;;
68910;SDS011;55953;51.650;-0.522;2022-07-03T06:22:14;7.10;;;1.60;;
68910;SDS011;55953;51.650;-0.522;2022-07-03T06:24:42;5.60;;;1.60;;
68910;SDS011;55953;51.650;-0.522;2022-07-03T06:27:09;6.80;;;2.00;;
68910;SDS011;55953;51.650;-0.522;2022-07-03T06:29:37;12.00;;;2.70;;
68910;SDS011;55953;51.650;-0.522;2022-07-03T06:32:05;9.60;;;1.90;;
68910;SDS011;55953;51.650;-0.522;2022-07-03T06:34:33;6.30;;;1.70;;
68910;SDS011;55953;51.650;-0.522;2022-07-03T06:37:01;6.50;;;1.60;;
68910;SDS011;55953;51.650;-0.522;2022-07-03T06:39:28;10.70;;;2.00;;
68910;SDS011;55953;51.650;-0.522;2022-07-03T06:41:56;11.60;;;2.30;;
68910;SDS011;55953;51.650;-0.522;2022-07-03T06:44:25;10.80;;;1.70;;
68910;SDS011;55953;51.650;-0.522;2022-07-03T06:46:52;6.40;;;1.80;;
68910;SDS011;55953;51.650;-0.522;2022-07-03T06:49:20;4.70;;;1.60;;
68910;SDS011;55953;51.650;-0.522;2022-07-03T06:51:48;5.60;;;1.50;;
68910;SDS011;55953;51.650;-0.522;2022-07-03T06:54:16;7.20;;;1.60;;
68910;SDS011;55953;51.650;-0.522;2022-07-03T06:56:43;6.20;;;1.70;;
68910;SDS011;55953;51.650;-0.522;2022-07-03T06:59:11;5.90;;;1.50;;
68910;SDS011;55953;51.650;-0.522;2022-07-03T07:01:39;7.90;;;1.60;;
68910;SDS011;55953;51.650;-0.522;2022-07-03T07:04:07;7.00;;;1.30;;
68910;SDS011;55953;51.650;-0.522;2022-07-03T07:06:35;8.30;;;1.80;;
68910;SDS011;55953;51.650;-0.522;2022-07-03T07:09:04;8.10;;;2.00;;
68910;SDS011;55953;51.650;-0.522;2022-07-03T07:11:32;7.10;;;1.80;;
68910;SDS011;55953;51.650;-0.522;2022-07-03T07:14:00;5.60;;;1.40;;
68910;SDS011;55953;51.650;-0.522;2022-07-03T07:16:27;9.60;;;1.60;;
68910;SDS011;55953;51.650;-0.522;2022-07-03T07:18:56;11.00;;;1.50;;
68910;SDS011;55953;51.650;-0.522;2022-07-03T07:21:24;7.40;;;2.10;;
68910;SDS011;55953;51.650;-0.522;2022-07-03T07:23:52;7.90;;;1.70;;
68910;SDS011;55953;51.650;-0.522;2022-07-03T07:26:20;4.60;;;1.40;;
68910;SDS011;55953;51.650;-0.522;2022-07-03T07:28:48;5.40;;;1.70;;
68910;SDS011;55953;51.650;-0.522;2022-07-03T07:31:15;8.00;;;1.60;;
68910;SDS011;55953;51.650;-0.522;2022-07-03T07:33:43;5.80;;;1.50;;
68910;SDS011;55953;51.650;-0.522;2022-07-03T07:36:11;8.20;;;1.60;;
68910;SDS011;55953;51.650;-0.522;2022-07-03T07:38:38;6.30;;;1.50;;
68910;SDS011;55953;51.650;-0.522;2022-07-03T07:41:06;8.20;;;1.70;;
68910;SDS011;55953;51.650;-0.522;2022-07-03T07:43:34;6.70;;;1.30;;
68910;SDS011;55953;51.650;-0.522;2022-07-03T07:46:02;4.60;;;1.50;;
68910;SDS011;55953;51.650;-0.522;2022-07-03T07:48:29;11.60;;;1.70;;
68910;SDS011;55953;51.650;-0.522;2022-07-03T07:50:58;7.50;;;1.50;;
68910;SDS011;55953;51.650;-0.522;2022-07-03T07:53:26;10.50;;;1.60;;
68910;SDS011;55953;51.650;-0.522;2022-07-03T07:55:54;6.60;;;1.50;;
68910;SDS011;55953;51.650;-0.522;2022-07-03T07:58:21;5.90;;;1.40;;
68910;SDS011;55953;51.650;-0.522;2022-07-03T08:00:49;6.30;;;1.60;;
68910;SDS011;55953;51.650;-0.522;2022-07-03T08:03:36;4.00;;;1.40;;
68910;SDS011;55953;51.650;-0.522;2022-07-03T08:06:22;6.40;;;1.40;;
68910;SDS011;55953;51.650;-0.522;2022-07-03T08:08:50;7.00;;;1.50;;
68910;SDS011;55953;51.650;-0.522;2022-07-03T08:11:17;6.50;;;1.40;;
68910;SDS011;55953;51.650;-0.522;2022-07-03T08:13:45;6.50;;;1.50;;
68910;SDS011;55953;51.650;-0.522;2022-07-03T08:16:13;6.20;;;1.50;;
68910;SDS011;55953;51.650;-0.522;2022-07-03T08:18:41;7.00;;;1.40;;
68910;SDS011;55953;51.650;-0.522;2022-07-03T08:21:10;7.20;;;1.50;;
68910;SDS011;55953;51.650;-0.522;2022-07-03T08:23:38;6.80;;;1.60;;
68910;SDS011;55953;51.650;-0.522;2022-07-03T08:26:06;5.40;;;1.30;;
68910;SDS011;55953;51.650;-0.522;2022-07-03T08:28:34;6.00;;;1.30;;
68910;SDS011;55953;51.650;-0.522;2022-07-03T08:31:01;8.30;;;1.30;;
68910;SDS011;55953;51.650;-0.522;2022-07-03T08:33:29;5.60;;;1.50;;
68910;SDS011;55953;51.650;-0.522;2022-07-03T08:36:07;11.10;;;1.90;;
68910;SDS011;55953;51.650;-0.522;2022-07-03T08:38:35;7.00;;;1.80;;
68910;SDS011;55953;51.650;-0.522;2022-07-03T08:41:03;6.20;;;2.20;;
68910;SDS011;55953;51.650;-0.522;2022-07-03T08:43:33;6.80;;;1.80;;
68910;SDS011;55953;51.650;-0.522;2022-07-03T08:46:00;5.00;;;1.90;;
68910;SDS011;55953;51.650;-0.522;2022-07-03T08:48:32;5.10;;;1.90;;
68910;SDS011;55953;51.650;-0.522;2022-07-03T08:51:02;9.70;;;2.60;;
68910;SDS011;55953;51.650;-0.522;2022-07-03T08:53:30;7.50;;;2.60;;
68910;SDS011;55953;51.650;-0.522;2022-07-03T08:56:00;7.10;;;2.30;;
68910;SDS011;55953;51.650;-0.522;2022-07-03T08:58:30;5.40;;;2.50;;
68910;SDS011;55953;51.650;-0.522;2022-07-03T09:00:59;7.80;;;2.40;;
68910;SDS011;55953;51.650;-0.522;2022-07-03T09:03:28;4.60;;;2.30;;
68910;SDS011;55953;51.650;-0.522;2022-07-03T09:05:56;4.80;;;2.40;;
68910;SDS011;55953;51.650;-0.522;2022-07-03T09:08:26;8.00;;;2.90;;
68910;SDS011;55953;51.650;-0.522;2022-07-03T09:10:56;6.60;;;2.60;;
68910;SDS011;55953;51.650;-0.522;2022-07-03T09:13:24;5.50;;;2.40;;
68910;SDS011;55953;51.650;-0.522;2022-07-03T09:15:51;5.10;;;2.20;;
68910;SDS011;55953;51.650;-0.522;2022-07-03T09:18:38;7.40;;;2.70;;
68910;SDS011;55953;51.650;-0.522;2022-07-03T09:21:10;10.70;;;3.00;;
68910;SDS011;55953;51.650;-0.522;2022-07-03T09:23:39;4.70;;;2.90;;
68910;SDS011;55953;51.650;-0.522;2022-07-03T09:26:16;7.20;;;3.00;;
68910;SDS011;55953;51.650;-0.522;2022-07-03T09:28:50;9.60;;;3.40;;
68910;SDS011;55953;51.650;-0.522;2022-07-03T09:31:21;5.80;;;3.10;;
68910;SDS011;55953;51.650;-0.522;2022-07-03T09:36:48;8.80;;;3.10;;
68910;SDS011;55953;51.650;-0.522;2022-07-03T09:39:25;8.10;;;3.00;;
68910;SDS011;55953;51.650;-0.522;2022-07-03T09:41:59;5.00;;;2.90;;
68910;SDS011;55953;51.650;-0.522;2022-07-03T09:44:40;4.30;;;3.00;;
68910;SDS011;55953;51.650;-0.522;2022-07-03T09:50:01;5.80;;;2.80;;
68910;SDS011;55953;51.650;-0.522;2022-07-03T09:52:47;5.80;;;3.00;;
68910;SDS011;55953;51.650;-0.522;2022-07-03T09:55:19;5.40;;;2.80;;
68910;SDS011;55953;51.650;-0.522;2022-07-03T10:00:26;4.70;;;2.90;;
68910;SDS011;55953;51.650;-0.522;2022-07-03T10:03:03;6.50;;;2.70;;
68910;SDS011;55953;51.650;-0.522;2022-07-03T10:05:42;4.70;;;2.60;;
68910;SDS011;55953;51.650;-0.522;2022-07-03T10:08:15;6.10;;;2.70;;
68910;SDS011;55953;51.650;-0.522;2022-07-03T10:10:45;5.30;;;2.70;;
68910;SDS011;55953;51.650;-0.522;2022-07-03T10:13:15;4.00;;;2.20;;
68910;SDS011;55953;51.650;-0.522;2022-07-03T10:15:43;4.50;;;2.40;;
68910;SDS011;55953;51.650;-0.522;2022-07-03T10:18:12;2.90;;;2.10;;
68910;SDS011;55953;51.650;-0.522;2022-07-03T10:20:48;5.20;;;2.30;;
68910;SDS011;55953;51.650;-0.522;2022-07-03T10:23:20;6.00;;;2.30;;
68910;SDS011;55953;51.650;-0.522;2022-07-03T10:25:49;4.30;;;2.30;;
68910;SDS011;55953;51.650;-0.522;2022-07-03T10:28:18;4.10;;;2.20;;
68910;SDS011;55953;51.650;-0.522;2022-07-03T10:30:47;6.40;;;2.00;;
68910;SDS011;55953;51.650;-0.522;2022-07-03T10:33:16;4.70;;;2.30;;
68910;SDS011;55953;51.650;-0.522;2022-07-03T10:35:49;6.40;;;2.50;;
68910;SDS011;55953;51.650;-0.522;2022-07-03T10:38:38;5.40;;;2.30;;
68910;SDS011;55953;51.650;-0.522;2022-07-03T10:41:40;5.10;;;2.10;;
68910;SDS011;55953;51.650;-0.522;2022-07-03T10:44:29;4.20;;;1.90;;
68910;SDS011;55953;51.650;-0.522;2022-07-03T10:47:48;5.00;;;2.20;;
68910;SDS011;55953;51.650;-0.522;2022-07-03T10:50:22;5.20;;;2.00;;
68910;SDS011;55953;51.650;-0.522;2022-07-03T10:52:50;4.60;;;2.10;;
68910;SDS011;55953;51.650;-0.522;2022-07-03T10:55:18;6.10;;;2.00;;
68910;SDS011;55953;51.650;-0.522;2022-07-03T10:58:06;5.70;;;2.00;;
68910;SDS011;55953;51.650;-0.522;2022-07-03T11:00:54;5.90;;;2.20;;
68910;SDS011;55953;51.650;-0.522;2022-07-03T11:04:00;5.60;;;2.10;;
68910;SDS011;55953;51.650;-0.522;2022-07-03T11:09:12;5.00;;;1.70;;
68910;SDS011;55953;51.650;-0.522;2022-07-03T11:11:44;4.50;;;1.80;;
68910;SDS011;55953;51.650;-0.522;2022-07-03T11:14:28;5.90;;;2.00;;
68910;SDS011;55953;51.650;-0.522;2022-07-03T11:17:19;6.60;;;1.80;;
68910;SDS011;55953;51.650;-0.522;2022-07-03T11:22:54;6.20;;;2.00;;
68910;SDS011;55953;51.650;-0.522;2022-07-03T11:25:38;5.00;;;1.60;;
68910;SDS011;55953;51.650;-0.522;2022-07-03T11:44:05;3.60;;;1.80;;
68910;SDS011;55953;51.650;-0.522;2022-07-03T11:46:38;5.60;;;1.70;;
68910;SDS011;55953;51.650;-0.522;2022-07-03T11:49:27;3.80;;;1.70;;
68910;SDS011;55953;51.650;-0.522;2022-07-03T11:52:00;3.60;;;1.60;;
68910;SDS011;55953;51.650;-0.522;2022-07-03T11:54:49;2.60;;;1.40;;
68910;SDS011;55953;51.650;-0.522;2022-07-03T11:57:18;6.30;;;1.60;;
68910;SDS011;55953;51.650;-0.522;2022-07-03T11:59:47;2.70;;;1.50;;
68910;SDS011;55953;51.650;-0.522;2022-07-03T12:02:18;4.70;;;1.50;;
68910;SDS011;55953;51.650;-0.522;2022-07-03T12:04:46;4.40;;;1.50;;
68910;SDS011;55953;51.650;-0.522;2022-07-03T12:07:14;3.50;;;1.40;;
68910;SDS011;55953;51.650;-0.522;2022-07-03T12:09:42;2.90;;;1.40;;
68910;SDS011;55953;51.650;-0.522;2022-07-03T12:12:11;4.20;;;1.50;;
68910;SDS011;55953;51.650;-0.522;2022-07-03T12:14:43;3.50;;;1.60;;
68910;SDS011;55953;51.650;-0.522;2022-07-03T12:17:19;4.50;;;1.40;;
68910;SDS011;55953;51.650;-0.522;2022-07-03T12:19:55;5.40;;;1.60;;
68910;SDS011;55953;51.650;-0.522;2022-07-03T12:22:31;3.60;;;1.30;;
68910;SDS011;55953;51.650;-0.522;2022-07-03T12:25:12;3.30;;;1.70;;
68910;SDS011;55953;51.650;-0.522;2022-07-03T12:27:42;2.70;;;1.60;;
68910;SDS011;55953;51.650;-0.522;2022-07-03T12:30:18;3.30;;;1.50;;
68910;SDS011;55953;51.650;-0.522;2022-07-03T12:32:54;4.90;;;1.50;;
68910;SDS011;55953;51.650;-0.522;2022-07-03T12:35:25;6.80;;;1.40;;
68910;SDS011;55953;51.650;-0.522;2022-07-03T12:37:54;4.00;;;1.40;;
68910;SDS011;55953;51.650;-0.522;2022-07-03T12:40:23;4.00;;;1.60;;
68910;SDS011;55953;51.650;-0.522;2022-07-03T12:42:52;1.80;;;1.30;;
68910;SDS011;55953;51.650;-0.522;2022-07-03T12:45:26;3.20;;;1.40;;
68910;SDS011;55953;51.650;-0.522;2022-07-03T12:48:02;3.40;;;1.40;;
68910;SDS011;55953;51.650;-0.522;2022-07-03T12:50:48;4.80;;;1.50;;
68910;SDS011;55953;51.650;-0.522;2022-07-03T12:53:26;6.10;;;1.40;;
68910;SDS011;55953;51.650;-0.522;2022-07-03T12:56:05;2.90;;;1.20;;
68910;SDS011;55953;51.650;-0.522;2022-07-03T12:58:36;3.20;;;1.10;;
68910;SDS011;55953;51.650;-0.522;2022-07-03T13:01:29;2.10;;;1.00;;
68910;SDS011;55953;51.650;-0.522;2022-07-03T13:04:01;3.30;;;1.10;;
68910;SDS011;55953;51.650;-0.522;2022-07-03T13:06:29;2.40;;;1.10;;
68910;SDS011;55953;51.650;-0.522;2022-07-03T13:09:02;2.30;;;1.10;;
68910;SDS011;55953;51.650;-0.522;2022-07-03T13:11:33;2.10;;;1.00;;
68910;SDS011;55953;51.650;-0.522;2022-07-03T13:14:14;3.10;;;1.30;;
68910;SDS011;55953;51.650;-0.522;2022-07-03T13:16:48;2.80;;;1.50;;
68910;SDS011;55953;51.650;-0.522;2022-07-03T13:19:22;5.40;;;1.40;;
68910;SDS011;55953;51.650;-0.522;2022-07-03T13:21:56;3.30;;;1.10;;
68910;SDS011;55953;51.650;-0.522;2022-07-03T13:24:25;1.70;;;1.10;;
68910;SDS011;55953;51.650;-0.522;2022-07-03T13:26:53;2.50;;;1.00;;
68910;SDS011;55953;51.650;-0.522;2022-07-03T13:29:22;3.80;;;1.10;;
68910;SDS011;55953;51.650;-0.522;2022-07-03T13:34:22;3.60;;;1.00;;
68910;SDS011;55953;51.650;-0.522;2022-07-03T13:36:49;2.90;;;1.10;;
68910;SDS011;55953;51.650;-0.522;2022-07-03T13:39:17;2.60;;;1.20;;
68910;SDS011;55953;51.650;-0.522;2022-07-03T13:41:45;2.40;;;1.10;;
68910;SDS011;55953;51.650;-0.522;2022-07-03T13:44:13;2.70;;;1.10;;
68910;SDS011;55953;51.650;-0.522;2022-07-03T13:46:41;4.10;;;1.20;;
68910;SDS011;55953;51.650;-0.522;2022-07-03T13:49:14;2.60;;;1.10;;
68910;SDS011;55953;51.650;-0.522;2022-07-03T13:51:42;2.90;;;1.20;;
68910;SDS011;55953;51.650;-0.522;2022-07-03T13:54:10;4.30;;;1.10;;
68910;SDS011;55953;51.650;-0.522;2022-07-03T13:56:38;2.00;;;1.10;;
68910;SDS011;55953;51.650;-0.522;2022-07-03T13:59:06;3.40;;;1.20;;
68910;SDS011;55953;51.650;-0.522;2022-07-03T14:01:33;2.60;;;1.10;;
68910;SDS011;55953;51.650;-0.522;2022-07-03T14:04:01;2.90;;;1.10;;
68910;SDS011;55953;51.650;-0.522;2022-07-03T14:06:29;3.60;;;1.20;;
68910;SDS011;55953;51.650;-0.522;2022-07-03T14:08:57;3.00;;;1.10;;
68910;SDS011;55953;51.650;-0.522;2022-07-03T14:11:24;4.00;;;1.50;;
68910;SDS011;55953;51.650;-0.522;2022-07-03T14:13:52;2.10;;;1.20;;
68910;SDS011;55953;51.650;-0.522;2022-07-03T14:16:20;2.40;;;1.00;;
68910;SDS011;55953;51.650;-0.522;2022-07-03T14:18:48;1.60;;;1.00;;
68910;SDS011;55953;51.650;-0.522;2022-07-03T14:21:15;5.80;;;1.10;;
68910;SDS011;55953;51.650;-0.522;2022-07-03T14:23:43;3.10;;;1.10;;
68910;SDS011;55953;51.650;-0.522;2022-07-03T14:26:11;2.50;;;1.00;;
68910;SDS011;55953;51.650;-0.522;2022-07-03T14:28:38;1.80;;;1.00;;
68910;SDS011;55953;51.650;-0.522;2022-07-03T14:31:25;2.20;;;1.00;;
68910;SDS011;55953;51.650;-0.522;2022-07-03T14:33:53;2.30;;;0.90;;
68910;SDS011;55953;51.650;-0.522;2022-07-03T14:36:22;2.60;;;1.00;;
68910;SDS011;55953;51.650;-0.522;2022-07-03T14:39:09;2.40;;;1.10;;
68910;SDS011;55953;51.650;-0.522;2022-07-03T14:41:37;1.80;;;1.00;;
68910;SDS011;55953;51.650;-0.522;2022-07-03T14:44:05;3.80;;;1.10;;
68910;SDS011;55953;51.650;-0.522;2022-07-03T14:46:33;3.70;;;1.20;;
68910;SDS011;55953;51.650;-0.522;2022-07-03T14:49:00;4.10;;;1.30;;
68910;SDS011;55953;51.650;-0.522;2022-07-03T14:51:28;2.70;;;1.30;;
68910;SDS011;55953;51.650;-0.522;2022-07-03T14:53:56;2.80;;;1.20;;
68910;SDS011;55953;51.650;-0.522;2022-07-03T14:56:24;2.10;;;1.00;;
68910;SDS011;55953;51.650;-0.522;2022-07-03T14:58:52;3.10;;;1.30;;
68910;SDS011;55953;51.650;-0.522;2022-07-03T15:01:19;3.70;;;1.20;;
68910;SDS011;55953;51.650;-0.522;2022-07-03T15:04:01;1.80;;;1.20;;
68910;SDS011;55953;51.650;-0.522;2022-07-03T15:06:30;3.40;;;1.30;;
68910;SDS011;55953;51.650;-0.522;2022-07-03T15:09:02;2.30;;;1.20;;
68910;SDS011;55953;51.650;-0.522;2022-07-03T15:14:26;2.90;;;1.60;;
68910;SDS011;55953;51.650;-0.522;2022-07-03T15:16:58;4.70;;;1.40;;
68910;SDS011;55953;51.650;-0.522;2022-07-03T15:19:27;4.10;;;1.10;;
68910;SDS011;55953;51.650;-0.522;2022-07-03T15:21:55;4.30;;;1.30;;
68910;SDS011;55953;51.650;-0.522;2022-07-03T15:24:23;3.00;;;1.50;;
68910;SDS011;55953;51.650;-0.522;2022-07-03T15:26:55;3.50;;;1.20;;
68910;SDS011;55953;51.650;-0.522;2022-07-03T15:29:24;4.70;;;1.40;;
68910;SDS011;55953;51.650;-0.522;2022-07-03T15:31:52;5.40;;;1.20;;
68910;SDS011;55953;51.650;-0.522;2022-07-03T15:34:21;3.10;;;1.40;;
68910;SDS011;55953;51.650;-0.522;2022-07-03T15:40:25;3.10;;;1.40;;
68910;SDS011;55953;51.650;-0.522;2022-07-03T15:51:23;3.90;;;1.30;;
68910;SDS011;55953;51.650;-0.522;2022-07-03T15:54:02;4.30;;;1.80;;
68910;SDS011;55953;51.650;-0.522;2022-07-03T15:56:37;3.40;;;1.20;;
68910;SDS011;55953;51.650;-0.522;2022-07-03T15:59:13;5.20;;;1.60;;
68910;SDS011;55953;51.650;-0.522;2022-07-03T16:01:53;5.80;;;1.80;;
68910;SDS011;55953;51.650;-0.522;2022-07-03T16:10:11;3.60;;;1.70;;
68910;SDS011;55953;51.650;-0.522;2022-07-03T16:12:40;4.40;;;1.60;;
68910;SDS011;55953;51.650;-0.522;2022-07-03T16:15:09;4.60;;;1.50;;
68910;SDS011;55953;51.650;-0.522;2022-07-03T16:17:37;4.30;;;1.60;;
68910;SDS011;55953;51.650;-0.522;2022-07-03T16:20:06;3.70;;;1.50;;
68910;SDS011;55953;51.650;-0.522;2022-07-03T16:22:37;6.00;;;1.60;;
68910;SDS011;55953;51.650;-0.522;2022-07-03T16:25:06;3.60;;;1.50;;
68910;SDS011;55953;51.650;-0.522;2022-07-03T16:27:35;3.10;;;1.50;;
68910;SDS011;55953;51.650;-0.522;2022-07-03T16:30:04;6.40;;;1.70;;
68910;SDS011;55953;51.650;-0.522;2022-07-03T16:32:38;5.80;;;1.50;;